Time;durP1;ratioP1;P1;durP2;ratioP2;P2;SDS_P1;SDS_P2;PMS_P1;PMS_P2;Temp;Humidity;BMP_temperature;BMP_pressure;BME280_temperature;BME280_humidity;BME280_pressure;Samples;Min_cycle;Max_cycle;Signal;HPM_P1;HPM_P2
2021/07/17 00:02:03;;;;;;;19.30;16.47;;;;;;;22.56;83.13;100261.59;1829957;77;21054;-73
2021/07/17 00:04:28;;;;;;;18.00;16.20;;;;;;;22.57;83.23;100267.82;1831847;76;21454;-72
2021/07/17 00:06:56;;;;;;;17.53;15.63;;;;;;;22.57;83.53;100260.44;1836410;76;21358;-72
2021/07/17 00:09:23;;;;;;;18.80;16.90;;;;;;;22.57;83.88;100259.08;1834904;76;21470;-72
2021/07/17 00:11:49;;;;;;;18.60;16.67;;;;;;;22.59;84.20;100258.18;1830478;77;20980;-72
2021/07/17 00:14:16;;;;;;;18.10;16.27;;;;;;;22.61;84.58;100251.05;1804669;77;21490;-72
2021/07/17 00:16:45;;;;;;;17.67;15.73;;;;;;;22.61;84.92;100255.92;1832565;77;21063;-72
2021/07/17 00:19:12;;;;;;;21.13;15.97;;;;;;;22.63;85.17;100254.20;1808543;77;21309;-72
2021/07/17 00:21:38;;;;;;;19.63;16.63;;;;;;;22.63;85.39;100246.81;1833165;76;21421;-72
2021/07/17 00:24:06;;;;;;;17.00;15.30;;;;;;;22.65;85.63;100244.55;1830534;76;21517;-72
2021/07/17 00:26:33;;;;;;;18.37;16.30;;;;;;;22.67;85.73;100240.11;1843055;77;21420;-72
2021/07/17 00:29:00;;;;;;;18.50;16.40;;;;;;;22.67;85.84;100246.91;1832682;77;21004;-73
2021/07/17 00:31:27;;;;;;;18.63;16.77;;;;;;;22.67;85.87;100243.65;1830720;76;20995;-73
2021/07/17 00:33:54;;;;;;;19.03;17.13;;;;;;;22.67;85.98;100240.92;1829390;77;21010;-74
2021/07/17 00:36:20;;;;;;;17.80;15.97;;;;;;;22.67;86.07;100237.39;1836745;77;20923;-72
2021/07/17 00:38:47;;;;;;;18.67;16.67;;;;;;;22.66;86.14;100245.34;1864706;76;21408;-72
2021/07/17 00:41:14;;;;;;;18.93;16.87;;;;;;;22.65;86.10;100247.84;1838040;76;21086;-71
2021/07/17 00:43:40;;;;;;;18.07;16.27;;;;;;;22.66;86.07;100245.34;1840166;76;21031;-72
2021/07/17 00:46:07;;;;;;;20.97;16.43;;;;;;;22.65;86.01;100244.55;1829221;77;21407;-72
2021/07/17 00:48:35;;;;;;;17.07;15.37;;;;;;;22.63;85.96;100243.31;1835786;77;21019;-73
2021/07/17 00:51:03;;;;;;;16.80;15.03;;;;;;;22.59;85.93;100245.93;1840752;77;21101;-72
2021/07/17 00:53:31;;;;;;;21.43;15.73;;;;;;;22.55;85.87;100242.32;1829820;76;21561;-72
2021/07/17 00:55:58;;;;;;;17.77;15.47;;;;;;;22.50;85.81;100246.63;1836289;76;20988;-72
2021/07/17 00:58:31;;;;;;;18.23;15.17;;;;;;;22.44;85.82;100242.56;1881748;76;21067;-72
2021/07/17 01:00:58;;;;;;;20.37;15.13;;;;;;;22.38;86.07;100250.77;1852993;76;21011;-72
2021/07/17 01:03:25;;;;;;;18.70;16.03;;;;;;;22.33;86.32;100248.27;1832725;77;21126;-72
2021/07/17 01:05:55;;;;;;;18.13;15.23;;;;;;;22.31;86.50;100249.17;1810905;77;21028;-71
2021/07/17 01:08:22;;;;;;;20.13;16.13;;;;;;;22.29;86.72;100246.81;1815098;76;21133;-72
2021/07/17 01:10:50;;;;;;;17.23;15.53;;;;;;;22.29;86.81;100251.47;1838301;77;21054;-71
2021/07/17 01:13:17;;;;;;;19.07;16.77;;;;;;;22.26;86.92;100245.34;1845152;77;21105;-72
2021/07/17 01:15:43;;;;;;;19.63;17.03;;;;;;;22.24;87.36;100249.21;1833226;77;21637;-72
2021/07/17 01:18:10;;;;;;;18.27;16.40;;;;;;;22.24;87.66;100251.93;1835921;77;21081;-72
2021/07/17 01:20:38;;;;;;;18.50;16.30;;;;;;;22.26;87.80;100246.13;1838738;77;21074;-71
2021/07/17 01:23:05;;;;;;;21.20;16.37;;;;;;;22.26;87.93;100244.77;1767318;80;21134;-71
2021/07/17 01:25:33;;;;;;;19.87;16.73;;;;;;;22.27;87.95;100244.98;1769563;79;21050;-71
2021/07/17 01:28:00;;;;;;;20.77;16.77;;;;;;;22.27;87.96;100241.48;1841069;76;21092;-72
2021/07/17 01:30:33;;;;;;;18.23;16.33;;;;;;;22.26;87.91;100245.34;1778422;79;21127;-72
2021/07/17 01:33:00;;;;;;;17.73;15.93;;;;;;;22.24;87.81;100247.85;1791767;79;21086;-71
2021/07/17 01:35:27;;;;;;;18.27;15.67;;;;;;;22.23;87.80;100248.97;1794047;78;21070;-72
2021/07/17 01:37:53;;;;;;;17.83;16.03;;;;;;;22.21;87.82;100243.63;1842001;77;21065;-72
2021/07/17 01:40:21;;;;;;;19.33;17.33;;;;;;;22.20;87.94;100243.42;1830994;76;21497;-70
2021/07/17 01:42:51;;;;;;;21.00;17.33;;;;;;;22.18;88.20;100239.70;1846556;77;21035;-71
2021/07/17 01:45:32;;;;;;;19.07;17.00;;;;;;;22.17;88.50;100242.17;1834768;76;21490;-71
2021/07/17 01:47:59;;;;;;;18.10;16.30;;;;;;;22.16;88.63;100241.95;1834398;77;21023;-71
2021/07/17 01:50:28;;;;;;;18.43;16.57;;;;;;;22.16;88.75;100244.67;1853409;76;21016;-71
2021/07/17 01:52:55;;;;;;;17.50;15.70;;;;;;;22.15;88.87;100243.09;1827244;77;21054;-71
2021/07/17 01:55:21;;;;;;;19.00;16.87;;;;;;;22.15;88.95;100249.08;1833952;76;21030;-71
2021/07/17 01:57:50;;;;;;;19.03;16.30;;;;;;;22.11;89.01;100238.09;1839600;77;20935;-71
2021/07/17 02:00:19;;;;;;;18.27;16.43;;;;;;;22.11;89.17;100246.80;1842002;77;21640;-73
2021/07/17 02:02:48;;;;;;;18.25;16.55;;;;;;;22.10;89.44;100242.50;1841148;77;21412;-72
2021/07/17 02:05:15;;;;;;;17.83;15.97;;;;;;;22.08;89.56;100236.05;1838400;77;21875;-72
2021/07/17 02:07:46;;;;;;;17.37;15.47;;;;;;;22.08;89.62;100240.68;1831193;76;21082;-73
2021/07/17 02:10:23;;;;;;;17.40;15.28;;;;;;;22.05;89.63;100240.81;1777279;79;26908;-72
2021/07/17 02:13:03;;;;;;;16.90;14.83;;;;;;;22.06;89.69;100242.97;1860042;76;21101;-71
2021/07/17 02:15:34;;;;;;;17.07;15.40;;;;;;;22.03;89.67;100244.44;1841077;76;21102;-71
2021/07/17 02:18:02;;;;;;;16.07;14.50;;;;;;;22.00;89.69;100249.98;1835408;77;24152;-72
2021/07/17 02:20:29;;;;;;;15.43;13.93;;;;;;;22.00;89.71;100249.19;1768026;79;21040;-71
2021/07/17 02:22:56;;;;;;;16.30;14.60;;;;;;;21.99;89.64;100250.34;1774883;79;21090;-71
2021/07/17 02:25:24;;;;;;;16.13;14.43;;;;;;;21.98;89.49;100254.17;1769289;79;21621;-71
2021/07/17 02:27:51;;;;;;;16.13;14.13;;;;;;;21.96;89.34;100246.37;1841792;77;21054;-71
2021/07/17 02:30:18;;;;;;;16.30;14.63;;;;;;;21.94;89.11;100245.12;1841649;77;22193;-71
2021/07/17 02:32:45;;;;;;;15.77;14.13;;;;;;;21.91;88.96;100247.95;1840187;76;21408;-71
2021/07/17 02:35:11;;;;;;;15.47;13.93;;;;;;;21.92;88.90;100249.55;1874976;76;21037;-71
2021/07/17 02:37:38;;;;;;;15.90;14.40;;;;;;;21.91;88.84;100257.45;1841160;77;21054;-71
2021/07/17 02:40:06;;;;;;;15.60;14.07;;;;;;;21.90;88.98;100254.52;1842152;77;20928;-71
2021/07/17 02:42:33;;;;;;;17.10;15.40;;;;;;;21.92;89.21;100252.84;1839192;76;21226;-71
2021/07/17 02:45:00;;;;;;;17.43;15.23;;;;;;;21.93;89.39;100253.05;1841074;76;21466;-70
2021/07/17 02:47:27;;;;;;;17.10;14.90;;;;;;;21.94;89.54;100247.27;1834858;76;21046;-70
2021/07/17 02:49:53;;;;;;;16.60;14.63;;;;;;;21.99;89.61;100248.41;1839298;76;21403;-71
2021/07/17 02:52:20;;;;;;;15.33;13.73;;;;;;;22.06;89.66;100249.77;1840513;76;21520;-71
2021/07/17 02:54:48;;;;;;;15.80;14.30;;;;;;;22.11;89.63;100249.52;1834918;77;22199;-72
2021/07/17 02:57:15;;;;;;;15.50;14.00;;;;;;;22.16;89.64;100249.33;1839590;76;21023;-71
2021/07/17 02:59:41;;;;;;;15.10;13.50;;;;;;;22.20;89.66;100261.89;1830271;77;20991;-71
2021/07/17 03:02:08;;;;;;;14.70;13.17;;;;;;;22.26;89.63;100257.59;1840302;77;21057;-71
2021/07/17 03:04:35;;;;;;;15.33;13.80;;;;;;;22.27;89.52;100248.28;1844647;77;20928;-71
2021/07/17 03:07:04;;;;;;;14.43;12.93;;;;;;;22.30;89.43;100244.88;1844212;76;21023;-72
2021/07/17 03:09:31;;;;;;;14.47;13.17;;;;;;;22.33;89.38;100239.54;1844532;77;20968;-72
2021/07/17 03:11:58;;;;;;;14.33;12.83;;;;;;;22.35;89.32;100244.08;1847216;76;21037;-72
2021/07/17 03:14:24;;;;;;;15.23;13.73;;;;;;;22.38;89.25;100242.61;1841710;77;21058;-72
2021/07/17 03:16:53;;;;;;;16.77;14.97;;;;;;;22.39;89.28;100237.37;1787879;79;21142;-72
2021/07/17 03:19:19;;;;;;;15.77;14.17;;;;;;;22.42;89.37;100242.92;1752933;81;21217;-72
2021/07/17 03:21:46;;;;;;;16.90;15.20;;;;;;;22.45;89.38;100235.44;1771425;79;20968;-71
2021/07/17 03:24:12;;;;;;;16.93;15.13;;;;;;;22.50;89.39;100234.95;1837300;76;21003;-70
2021/07/17 03:26:39;;;;;;;16.33;14.70;;;;;;;22.54;89.41;100235.84;1841041;76;21089;-70
2021/07/17 03:29:06;;;;;;;16.47;14.87;;;;;;;22.58;89.42;100228.59;1836600;77;21057;-70
2021/07/17 03:31:32;;;;;;;18.17;16.27;;;;;;;22.62;89.54;100224.83;1856374;76;21759;-74
2021/07/17 03:33:59;;;;;;;17.63;15.70;;;;;;;22.68;89.47;100231.61;1848460;76;21468;-71
2021/07/17 03:36:27;;;;;;;16.40;14.53;;;;;;;22.75;89.33;100228.88;1822043;76;21066;-71
2021/07/17 03:38:54;;;;;;;16.20;14.70;;;;;;;22.83;89.01;100227.91;1833251;77;21109;-71
2021/07/17 03:41:20;;;;;;;16.00;14.30;;;;;;;22.94;88.75;100227.67;1841904;77;20995;-71
2021/07/17 03:43:47;;;;;;;17.70;15.90;;;;;;;23.03;88.63;100226.14;1846462;77;21429;-72
2021/07/17 03:46:13;;;;;;;18.47;16.57;;;;;;;23.13;88.35;100237.34;1831122;77;20987;-71
2021/07/17 03:48:40;;;;;;;21.07;19.03;;;;;;;23.23;88.13;100236.03;1832342;77;21141;-72
2021/07/17 03:51:07;;;;;;;20.60;18.50;;;;;;;23.31;87.96;100224.16;1833087;77;21085;-72
2021/07/17 03:53:34;;;;;;;21.30;19.10;;;;;;;23.41;87.84;100218.76;1848429;76;21031;-71
2021/07/17 03:56:00;;;;;;;21.80;18.80;;;;;;;23.52;87.62;100223.89;1835289;77;21105;-72
2021/07/17 03:58:27;;;;;;;19.33;17.27;;;;;;;23.62;87.15;100215.17;1828430;77;20987;-74
2021/07/17 04:00:54;;;;;;;18.83;16.87;;;;;;;23.74;86.37;100218.98;1837474;77;21094;-72
2021/07/17 04:03:22;;;;;;;18.07;16.33;;;;;;;23.87;85.76;100223.20;1837465;76;21014;-71
2021/07/17 04:05:49;;;;;;;17.50;15.63;;;;;;;23.97;85.12;100224.00;1839072;77;21097;-71
2021/07/17 04:08:16;;;;;;;16.27;14.67;;;;;;;24.09;84.66;100230.72;1837272;77;21058;-73
2021/07/17 04:10:43;;;;;;;15.87;14.37;;;;;;;24.22;83.89;100238.76;1838873;77;21076;-71
2021/07/17 04:13:10;;;;;;;14.43;12.93;;;;;;;24.33;83.16;100241.16;1841874;76;21007;-71
2021/07/17 04:15:38;;;;;;;14.93;13.43;;;;;;;24.45;82.10;100240.25;1848627;76;20980;-71
2021/07/17 04:18:05;;;;;;;14.37;12.97;;;;;;;24.57;80.77;100241.48;1838036;77;21031;-70
2021/07/17 04:20:32;;;;;;;13.60;12.23;;;;;;;24.68;79.29;100236.23;1834016;77;21127;-71
2021/07/17 04:22:59;;;;;;;14.67;12.77;;;;;;;24.78;77.90;100239.20;1835966;77;20989;-71
2021/07/17 04:25:29;;;;;;;13.97;12.57;;;;;;;24.86;77.00;100244.21;1821180;77;21006;-70
2021/07/17 04:27:56;;;;;;;14.80;13.07;;;;;;;24.95;76.58;100244.00;1832257;77;21111;-71
2021/07/17 04:30:23;;;;;;;14.93;13.13;;;;;;;25.04;75.93;100247.27;1837814;76;21582;-71
2021/07/17 04:32:50;;;;;;;15.90;14.20;;;;;;;25.09;75.04;100245.62;1840847;76;21131;-72
2021/07/17 04:35:16;;;;;;;14.67;13.07;;;;;;;25.17;74.93;100249.29;1815019;78;21054;-71
2021/07/17 04:37:45;;;;;;;15.73;14.13;;;;;;;25.26;74.24;100252.00;1841607;76;21046;-72
2021/07/17 04:40:13;;;;;;;16.47;14.67;;;;;;;25.36;73.97;100245.14;1836790;76;20979;-71
2021/07/17 04:42:39;;;;;;;16.37;14.60;;;;;;;25.46;73.66;100248.62;1841695;76;20963;-71
2021/07/17 04:45:08;;;;;;;15.63;13.60;;;;;;;25.56;73.68;100245.86;1838660;76;21527;-72
2021/07/17 04:47:36;;;;;;;14.70;13.20;;;;;;;25.67;73.50;100245.47;1832334;77;21053;-72
2021/07/17 04:50:04;;;;;;;15.63;14.10;;;;;;;25.80;72.98;100237.89;1826654;77;21019;-71
2021/07/17 04:52:30;;;;;;;15.67;14.07;;;;;;;25.91;72.61;100242.14;1838132;77;21055;-71
2021/07/17 04:54:57;;;;;;;17.00;13.77;;;;;;;25.98;72.12;100237.35;1834043;76;21011;-71
2021/07/17 04:57:23;;;;;;;14.30;12.90;;;;;;;26.03;71.74;100239.75;1822102;76;21500;-72
2021/07/17 04:59:50;;;;;;;15.77;14.17;;;;;;;26.07;71.28;100240.03;1828499;76;21023;-71
2021/07/17 05:02:16;;;;;;;15.77;14.13;;;;;;;26.12;71.24;100238.91;1840011;77;21561;-72
2021/07/17 05:04:43;;;;;;;14.83;13.43;;;;;;;26.15;71.13;100234.07;1830325;77;21058;-72
2021/07/17 05:07:09;;;;;;;15.17;13.57;;;;;;;26.22;71.25;100233.37;1804729;79;20940;-74
2021/07/17 05:09:36;;;;;;;15.20;13.70;;;;;;;26.30;70.65;100241.33;1762680;80;21976;-73
2021/07/17 05:12:04;;;;;;;13.53;11.80;;;;;;;26.41;69.53;100242.83;1838681;77;21063;-72
2021/07/17 05:14:31;;;;;;;14.40;12.90;;;;;;;26.53;69.24;100243.99;1842973;76;21035;-71
2021/07/17 05:16:58;;;;;;;14.60;13.10;;;;;;;26.65;69.39;100245.69;1832836;77;21165;-72
2021/07/17 05:19:25;;;;;;;15.00;12.30;;;;;;;26.77;68.92;100244.66;1832811;76;21588;-70
2021/07/17 05:21:52;;;;;;;14.00;12.50;;;;;;;26.87;69.09;100254.95;1842480;77;21106;-71
2021/07/17 05:24:19;;;;;;;13.90;12.50;;;;;;;26.95;68.36;100251.13;1846841;76;21031;-70
2021/07/17 05:26:46;;;;;;;14.57;13.07;;;;;;;27.00;68.07;100250.78;1779950;79;21007;-73
2021/07/17 05:29:12;;;;;;;14.93;12.70;;;;;;;27.02;67.50;100254.53;1815320;78;21097;-72
2021/07/17 05:31:39;;;;;;;15.53;12.67;;;;;;;27.08;67.42;100255.74;1764012;79;21050;-71
2021/07/17 05:34:06;;;;;;;14.47;12.57;;;;;;;27.19;67.54;100258.05;1769485;81;22150;-72
2021/07/17 05:36:32;;;;;;;16.57;13.10;;;;;;;27.29;66.51;100264.22;1762878;79;20995;-72
2021/07/17 05:38:59;;;;;;;13.27;11.90;;;;;;;27.35;66.35;100258.60;1838633;76;20990;-72
2021/07/17 05:41:26;;;;;;;15.00;12.83;;;;;;;27.44;66.02;100259.64;1835695;77;21549;-72
2021/07/17 05:43:53;;;;;;;16.60;12.13;;;;;;;27.46;65.22;100257.91;1842164;77;21062;-72
2021/07/17 05:46:19;;;;;;;14.17;11.57;;;;;;;27.49;64.62;100262.63;1845318;76;21091;-72
2021/07/17 05:48:47;;;;;;;14.23;11.30;;;;;;;27.51;64.19;100267.14;1831838;76;21018;-72
2021/07/17 05:51:14;;;;;;;16.03;11.27;;;;;;;27.56;64.36;100265.44;1830171;77;20979;-72
2021/07/17 05:53:41;;;;;;;14.07;11.63;;;;;;;27.65;64.13;100266.49;1844914;76;21081;-72
2021/07/17 05:56:08;;;;;;;16.23;11.97;;;;;;;27.75;63.65;100269.31;1844538;76;21015;-71
2021/07/17 05:58:36;;;;;;;15.97;11.63;;;;;;;27.86;63.41;100271.37;1842946;76;21129;-71
2021/07/17 06:01:03;;;;;;;15.10;12.17;;;;;;;27.90;62.91;100265.32;1839757;76;21022;-71
2021/07/17 06:03:30;;;;;;;12.80;11.50;;;;;;;27.94;63.02;100267.53;1840156;77;21084;-71
2021/07/17 06:05:56;;;;;;;14.73;11.93;;;;;;;28.01;63.12;100267.57;1833975;77;21090;-71
2021/07/17 06:08:24;;;;;;;13.60;12.20;;;;;;;28.10;62.38;100264.47;1836473;76;20956;-72
2021/07/17 06:10:52;;;;;;;13.30;11.60;;;;;;;28.17;61.71;100265.91;1830036;76;21521;-72
2021/07/17 06:13:21;;;;;;;13.90;11.67;;;;;;;28.25;61.35;100268.88;1834767;76;21033;-72
2021/07/17 06:15:49;;;;;;;15.30;12.77;;;;;;;28.36;61.53;100262.84;1837619;77;21432;-72
2021/07/17 06:18:17;;;;;;;15.90;11.63;;;;;;;28.46;61.01;100264.91;1849665;76;21061;-73
2021/07/17 06:20:44;;;;;;;15.60;10.73;;;;;;;28.57;60.54;100262.80;1838722;76;21121;-72
2021/07/17 06:23:10;;;;;;;12.73;11.43;;;;;;;28.64;60.15;100262.22;1819828;76;21102;-71
2021/07/17 06:25:37;;;;;;;14.63;11.40;;;;;;;28.70;59.89;100261.27;1841697;76;20960;-72
2021/07/17 06:28:04;;;;;;;12.83;11.03;;;;;;;28.78;59.81;100263.45;1843929;77;21165;-72
2021/07/17 06:30:32;;;;;;;14.03;11.63;;;;;;;28.85;59.68;100258.75;1841272;77;20983;-72
2021/07/17 06:32:58;;;;;;;13.80;10.93;;;;;;;28.94;58.97;100258.39;1834625;76;20995;-72
2021/07/17 06:35:25;;;;;;;13.57;11.50;;;;;;;29.03;58.49;100260.22;1822902;76;21504;-70
2021/07/17 06:37:51;;;;;;;15.77;12.63;;;;;;;29.07;58.23;100261.59;1850457;76;21011;-69
2021/07/17 06:40:18;;;;;;;12.80;11.37;;;;;;;29.13;57.96;100260.04;1839718;76;21133;-71
2021/07/17 06:42:49;;;;;;;19.73;12.10;;;;;;;29.23;57.87;100253.77;1834866;76;20946;-71
2021/07/17 06:45:17;;;;;;;14.10;11.03;;;;;;;29.34;57.75;100244.91;1803179;79;20952;-71
2021/07/17 06:47:43;;;;;;;16.23;11.90;;;;;;;29.45;57.19;100246.28;1848796;77;21480;-70
2021/07/17 06:50:12;;;;;;;14.00;11.95;;;;;;;29.43;56.89;100247.29;1820984;77;20984;-72
2021/07/17 06:52:38;;;;;;;13.62;11.63;;;;;;;29.43;57.05;100247.29;1835287;77;20999;-72
2021/07/17 06:55:07;;;;;;;17.87;12.30;;;;;;;29.53;56.69;100247.88;1834651;77;20977;-72
2021/07/17 06:57:38;;;;;;;14.78;11.53;;;;;;;29.67;56.38;100242.38;1842024;76;21042;-72
2021/07/17 07:00:07;;;;;;;14.25;11.22;;;;;;;29.82;55.87;100245.92;1843814;77;21055;-73
2021/07/17 07:02:34;;;;;;;13.43;11.30;;;;;;;29.97;55.21;100242.53;1836514;76;21094;-72
2021/07/17 07:05:01;;;;;;;14.05;11.90;;;;;;;30.10;54.17;100244.28;1845772;77;21031;-73
2021/07/17 07:07:28;;;;;;;13.70;11.22;;;;;;;30.22;54.13;100245.86;1840247;76;21121;-72
2021/07/17 07:09:54;;;;;;;16.62;11.85;;;;;;;30.32;53.82;100244.44;1847760;77;21556;-73
2021/07/17 07:12:23;;;;;;;14.33;11.18;;;;;;;30.40;53.47;100241.06;1831962;76;21007;-71
2021/07/17 07:14:51;;;;;;;14.53;12.35;;;;;;;30.44;53.10;100244.61;1831480;76;21584;-74
2021/07/17 07:17:18;;;;;;;13.83;11.48;;;;;;;30.51;53.04;100241.81;1842101;77;21218;-73
2021/07/17 07:19:46;;;;;;;13.50;10.60;;;;;;;30.60;52.66;100238.04;1837004;76;21195;-75
2021/07/17 07:22:13;;;;;;;12.50;8.73;;;;;;;30.68;51.28;100237.40;1833749;77;21052;-71
2021/07/17 07:24:39;;;;;;;11.33;7.87;;;;;;;30.74;48.43;100236.39;1829934;76;21062;-73
2021/07/17 07:27:06;;;;;;;12.40;8.70;;;;;;;30.85;46.55;100231.62;1838834;76;21025;-72
2021/07/17 07:29:32;;;;;;;14.98;9.38;;;;;;;30.96;46.05;100234.30;1844449;76;21461;-72
2021/07/17 07:31:59;;;;;;;10.23;8.25;;;;;;;31.06;46.62;100232.88;1838415;76;21155;-70
2021/07/17 07:34:26;;;;;;;14.03;10.53;;;;;;;31.19;45.52;100234.53;1837121;76;21093;-73
2021/07/17 07:36:53;;;;;;;12.28;9.98;;;;;;;31.31;45.35;100240.95;1834254;76;21981;-71
2021/07/17 07:39:20;;;;;;;14.85;10.85;;;;;;;31.36;44.68;100242.54;1764954;79;21552;-74
2021/07/17 07:41:47;;;;;;;14.25;9.85;;;;;;;31.36;44.37;100238.97;1775837;78;21063;-74
2021/07/17 07:44:14;;;;;;;12.78;8.90;;;;;;;31.40;44.37;100233.63;1782046;78;21564;-72
2021/07/17 07:46:40;;;;;;;15.95;9.30;;;;;;;31.43;43.25;100239.72;1783888;80;21476;-71
2021/07/17 07:49:08;;;;;;;11.65;9.05;;;;;;;31.43;43.42;100238.94;1788749;78;21197;-72
2021/07/17 07:51:34;;;;;;;12.00;9.50;;;;;;;31.47;43.43;100232.19;1781042;79;21070;-72
2021/07/17 07:54:01;;;;;;;11.45;8.78;;;;;;;31.61;42.83;100227.13;1772075;78;21049;-72
2021/07/17 07:56:27;;;;;;;11.63;8.75;;;;;;;31.74;42.30;100234.30;1775162;78;21004;-71
2021/07/17 07:58:53;;;;;;;12.90;8.53;;;;;;;31.89;42.29;100228.87;1771253;78;21038;-71
2021/07/17 08:01:22;;;;;;;10.13;8.10;;;;;;;32.05;42.33;100228.88;1774358;80;21270;-70
2021/07/17 08:03:48;;;;;;;11.73;7.85;;;;;;;32.15;41.89;100221.88;1777002;80;21038;-72
2021/07/17 08:06:15;;;;;;;9.27;7.67;;;;;;;32.28;41.00;100222.12;1761612;80;21027;-72
2021/07/17 08:08:43;;;;;;;8.28;7.42;;;;;;;32.34;40.69;100232.88;1772213;79;21071;-72
2021/07/17 08:11:10;;;;;;;8.58;7.37;;;;;;;32.39;40.08;100228.28;1836047;76;21082;-72
2021/07/17 08:13:38;;;;;;;8.05;7.22;;;;;;;32.41;40.21;100227.28;1831133;76;21058;-72
2021/07/17 08:16:05;;;;;;;9.15;7.92;;;;;;;32.40;40.39;100224.31;1826697;76;21093;-71
2021/07/17 08:18:31;;;;;;;9.53;7.53;;;;;;;32.40;40.06;100224.92;1844400;76;21055;-73
2021/07/17 08:20:58;;;;;;;9.30;7.78;;;;;;;32.39;40.63;100231.05;1830147;77;20969;-71
2021/07/17 08:23:25;;;;;;;8.88;7.37;;;;;;;32.33;40.15;100220.87;1832357;76;21002;-72
2021/07/17 08:25:52;;;;;;;7.92;7.17;;;;;;;32.17;39.71;100220.06;1839993;76;21484;-71
2021/07/17 08:28:18;;;;;;;8.80;7.92;;;;;;;32.02;40.21;100218.65;1862298;76;20965;-72
2021/07/17 08:30:45;;;;;;;8.75;7.12;;;;;;;31.94;40.61;100216.58;1858112;76;21069;-72
2021/07/17 08:33:12;;;;;;;8.58;7.53;;;;;;;31.89;40.20;100210.91;1834528;77;21035;-72
2021/07/17 08:35:39;;;;;;;8.23;7.17;;;;;;;31.85;40.40;100218.40;1836635;77;20959;-71
2021/07/17 08:38:07;;;;;;;7.92;7.12;;;;;;;31.86;40.83;100218.61;1825157;76;21199;-71
2021/07/17 08:40:36;;;;;;;10.60;8.05;;;;;;;31.96;40.71;100218.34;1842644;77;20996;-71
2021/07/17 08:43:02;;;;;;;8.98;7.92;;;;;;;32.05;41.28;100210.92;1839595;77;21056;-71
2021/07/17 08:45:29;;;;;;;8.63;7.72;;;;;;;32.12;41.77;100217.17;1838359;77;21215;-71
2021/07/17 08:47:57;;;;;;;10.60;8.50;;;;;;;32.15;41.54;100212.77;1848066;77;21015;-72
2021/07/17 08:50:26;;;;;;;10.05;8.75;;;;;;;32.07;40.61;100211.30;1843515;76;21115;-71
2021/07/17 08:52:56;;;;;;;12.35;8.73;;;;;;;31.90;40.97;100211.09;1825650;77;21070;-71
2021/07/17 08:55:26;;;;;;;10.20;8.48;;;;;;;31.81;41.72;100202.47;1832555;76;21517;-72
2021/07/17 08:57:53;;;;;;;10.43;8.10;;;;;;;31.72;42.42;100209.06;1832071;77;20992;-72
2021/07/17 09:00:27;;;;;;;10.58;8.45;;;;;;;31.66;42.57;100209.34;1839881;77;20987;-72
2021/07/17 09:02:57;;;;;;;9.75;8.63;;;;;;;31.58;42.12;100209.22;1846228;77;21887;-72
2021/07/17 09:05:27;;;;;;;14.20;8.27;;;;;;;31.64;41.53;100206.98;1832901;76;21030;-73
2021/07/17 09:07:56;;;;;;;11.08;8.40;;;;;;;31.64;41.53;100206.98;1847647;76;21050;-71
2021/07/17 09:10:47;;;;;;;10.20;8.70;;;;;;;31.81;42.07;100205.83;1850480;76;21494;-76
2021/07/17 09:13:28;;;;;;;;;;;;;;;31.99;41.88;100200.34;1843305;76;21055;-71
2021/07/17 09:16:05;;;;;;;10.98;7.87;;;;;;;32.19;40.32;100202.48;1831566;76;21833;-73
2021/07/17 09:18:46;;;;;;;10.68;8.13;;;;;;;32.37;40.29;100198.11;1847192;76;20963;-72
2021/07/17 09:21:36;;;;;;;9.58;8.58;;;;;;;32.60;40.22;100194.06;1833572;77;20995;-71
2021/07/17 09:24:12;;;;;;;10.28;7.65;;;;;;;32.76;39.08;100199.58;1843783;77;21529;-78
2021/07/17 09:26:41;;;;;;;11.43;8.20;;;;;;;32.72;39.25;100201.02;1845427;76;21022;-74
2021/07/17 09:29:12;;;;;;;8.90;8.10;;;;;;;32.73;38.87;100199.81;1784668;79;21740;-74
2021/07/17 09:31:54;;;;;;;8.88;7.87;;;;;;;32.78;39.35;100199.96;1792227;78;21046;-74
2021/07/17 09:34:25;;;;;;;10.40;8.65;;;;;;;32.89;39.00;100194.44;1774917;79;21006;-73
2021/07/17 09:37:03;;;;;;;8.75;7.85;;;;;;;33.01;38.43;100192.33;1836896;77;21018;-74
2021/07/17 09:39:34;;;;;;;9.38;8.48;;;;;;;33.04;37.58;100184.55;1846964;77;21561;-74
2021/07/17 09:42:11;;;;;;;11.93;8.38;;;;;;;33.27;38.23;100185.97;1842365;77;21550;-74
2021/07/17 09:44:38;;;;;;;11.00;8.18;;;;;;;33.39;36.78;100182.57;1825173;77;21061;-73
2021/07/17 09:47:23;;;;;;;8.43;7.62;;;;;;;33.43;37.05;100177.58;1839516;77;21059;-73
2021/07/17 09:49:50;;;;;;;8.18;7.37;;;;;;;33.43;37.05;100177.58;1836425;77;21027;-74
2021/07/17 09:52:22;;;;;;;7.80;7.00;;;;;;;33.53;36.81;100178.02;1818417;76;21062;-74
2021/07/17 09:55:07;;;;;;;7.75;6.97;;;;;;;33.64;36.37;100174.46;1826906;76;21566;-74
2021/07/17 09:57:34;;;;;;;10.10;7.42;;;;;;;33.76;36.96;100174.42;1838825;77;21081;-74
2021/07/17 10:00:23;;;;;;;10.63;7.50;;;;;;;33.91;36.39;100174.94;1823678;77;21125;-74
2021/07/17 10:02:49;;;;;;;9.35;7.40;;;;;;;34.03;36.04;100173.73;1806097;77;20988;-72
2021/07/17 10:05:17;;;;;;;8.08;7.22;;;;;;;34.14;36.02;100166.57;1838872;77;21545;-74
2021/07/17 10:07:44;;;;;;;8.40;7.45;;;;;;;34.18;35.50;100167.27;1829065;77;22196;-74
2021/07/17 10:10:12;;;;;;;9.40;8.18;;;;;;;34.10;35.41;100158.16;1873275;76;21011;-73
2021/07/17 10:12:41;;;;;;;9.40;7.17;;;;;;;34.01;35.95;100172.59;1857581;76;20912;-72
2021/07/17 10:15:15;;;;;;;9.28;7.80;;;;;;;33.82;36.61;100170.73;1850387;76;20939;-73
2021/07/17 10:17:43;;;;;;;8.38;7.40;;;;;;;33.62;36.88;100169.94;1840171;77;20976;-73
2021/07/17 10:20:15;;;;;;;8.47;7.43;;;;;;;33.43;36.20;100164.52;1849835;77;21887;-74
2021/07/17 10:22:42;;;;;;;9.30;7.80;;;;;;;33.24;36.98;100161.90;1834373;77;21062;-73
2021/07/17 10:25:13;;;;;;;8.83;7.42;;;;;;;33.11;37.08;100163.09;1840416;76;21707;-73
2021/07/17 10:27:40;;;;;;;8.18;7.47;;;;;;;33.05;37.33;100166.77;1834264;76;21117;-73
2021/07/17 10:30:09;;;;;;;8.10;6.85;;;;;;;33.00;37.54;100163.08;1839305;77;21010;-73
2021/07/17 10:32:36;;;;;;;8.93;8.03;;;;;;;32.96;37.56;100152.08;1843696;76;21158;-74
2021/07/17 10:35:04;;;;;;;10.23;8.20;;;;;;;32.92;37.65;100152.10;1860854;76;21124;-75
2021/07/17 10:37:34;;;;;;;7.90;7.10;;;;;;;32.99;38.03;100144.92;1838215;76;21065;-76
2021/07/17 10:40:08;;;;;;;7.62;6.87;;;;;;;32.99;38.03;100144.92;1830391;77;21617;-75
2021/07/17 10:42:36;;;;;;;8.20;7.40;;;;;;;33.02;38.59;100141.31;1820779;77;21617;-72
2021/07/17 10:45:05;;;;;;;8.93;7.10;;;;;;;33.02;38.59;100141.31;1854557;76;21122;-74
2021/07/17 10:47:39;;;;;;;7.90;7.10;;;;;;;33.01;38.03;100131.47;1832816;76;21031;-76
2021/07/17 10:50:08;;;;;;;8.75;7.60;;;;;;;32.99;37.93;100131.87;1831681;77;21046;-73
2021/07/17 10:52:43;;;;;;;8.18;7.17;;;;;;;33.01;37.89;100131.47;1845796;76;21070;-75
2021/07/17 10:55:32;;;;;;;7.78;6.97;;;;;;;33.13;38.14;100130.84;1828046;76;21019;-73
2021/07/17 10:58:14;;;;;;;9.05;7.08;;;;;;;33.32;37.64;100123.19;1824451;76;40226;-73
2021/07/17 11:00:52;;;;;;;8.78;6.90;;;;;;;33.61;37.07;100114.38;1826650;77;21092;-73
2021/07/17 11:03:32;;;;;;;10.05;8.23;;;;;;;33.92;36.18;100119.70;1797343;76;21665;-74
2021/07/17 11:05:56;;;;;;;8.13;7.30;;;;;;;34.14;35.78;100113.13;1832089;76;21020;-74
2021/07/17 11:08:31;;;;;;;9.70;8.03;;;;;;;34.34;34.96;100108.32;1834066;76;21057;-72
2021/07/17 11:10:58;;;;;;;7.35;6.58;;;;;;;34.38;34.93;100105.47;1847999;76;21523;-75
2021/07/17 11:13:35;;;;;;;8.05;7.25;;;;;;;34.31;34.72;100099.48;1818002;77;21089;-74
2021/07/17 11:16:04;;;;;;;7.75;6.95;;;;;;;34.29;35.04;100099.14;1840604;76;21120;-76
2021/07/17 11:18:36;;;;;;;8.93;7.72;;;;;;;34.27;35.10;100102.94;1833586;76;21074;-75
2021/07/17 11:21:05;;;;;;;12.13;7.83;;;;;;;34.19;37.09;100102.91;1830471;77;20991;-73